Time,TemperatureF,DewpointF,PressureIn,WindDirection,WindDirectionDegrees,WindSpeedMPH,WindSpeedGustMPH,Humidity,HourlyPrecipIn,Conditions,Clouds,dailyrainin,SolarRadiationWatts/m^2,SoftwareType,DateUTC
2013-02-19 00:00:00,29.7,14.6,29.85,SE,133,5.0,9.0,53,0.00,SCT,,0.00,0.0,WeatherDisplay:10.37,2013-02-19 05:00:00,
2013-02-19 00:02:00,29.8,14.8,29.85,SSE,158,8.1,8.1,53,0.00,BKN,,0.00,0.0,WeatherDisplay:10.37,2013-02-19 05:02:00,
2013-02-19 00:07:00,30.0,14.9,29.85,ESE,112,5.8,5.8,53,0.00,BKN,,0.00,0.0,WeatherDisplay:10.37,2013-02-19 05:07:00,
2013-02-19 00:12:00,30.4,15.3,29.85,NNE,22,4.6,5.6,53,0.00,BKN,,0.00,0.0,WeatherDisplay:10.37,2013-02-19 05:12:00,
2013-02-19 00:17:00,30.7,15.6,29.85,ESE,112,4.6,4.6,53,0.00,BKN,,0.00,0.0,WeatherDisplay:10.37,2013-02-19 05:17:00,
2013-02-19 00:22:00,31.1,15.9,29.85,SSE,158,6.4,6.4,53,0.00,BKN,,0.00,0.0,WeatherDisplay:10.37,2013-02-19 05:22:00,
2013-02-19 00:27:00,31.1,15.9,29.88,SSE,158,6.9,6.9,53,0.00,BKN,,0.00,0.0,WeatherDisplay:10.37,2013-02-19 05:27:00,
2013-02-19 00:32:00,31.3,16.1,29.88,SSE,158,10.4,10.4,53,0.00,BKN,,0.00,0.0,WeatherDisplay:10.37,2013-02-19 05:32:00,
2013-02-19 00:37:00,31.5,16.3,29.88,SSE,158,8.1,8.1,53,0.00,BKN,,0.00,0.0,WeatherDisplay:10.37,2013-02-19 05:37:00,
2013-02-19 00:42:00,31.6,16.4,29.88,SSE,158,10.4,10.4,53,0.00,BKN,,0.00,0.0,WeatherDisplay:10.37,2013-02-19 05:42:00,
2013-02-19 00:47:00,31.6,16.4,29.88,ESE,112,6.9,6.9,53,0.00,BKN,,0.00,0.0,WeatherDisplay:10.37,2013-02-19 05:47:00,
2013-02-19 00:52:00,31.6,16.4,29.88,SSE,158,6.9,6.9,53,0.00,BKN,,0.00,0.0,WeatherDisplay:10.37,2013-02-19 05:52:00,
2013-02-19 00:57:00,31.6,16.4,29.88,ESE,112,8.1,8.1,53,0.00,BKN,,0.00,0.0,WeatherDisplay:10.37,2013-02-19 05:57:00,
2013-02-19 01:02:00,31.8,16.6,29.88,SSE,158,10.4,10.4,53,0.00,OVC,,0.00,0.0,WeatherDisplay:10.37,2013-02-19 06:02:00,
2013-02-19 01:07:00,31.8,16.6,29.88,ESE,112,11.5,11.5,53,0.00,OVC,,0.00,0.0,WeatherDisplay:10.37,2013-02-19 06:07:00,
2013-02-19 01:12:00,31.8,16.6,29.85,ESE,112,7.4,7.4,53,0.00,OVC,,0.00,0.0,WeatherDisplay:10.37,2013-02-19 06:12:00,
2013-02-19 01:17:00,32.0,16.8,29.85,WSW,248,8.1,8.1,53,0.00,OVC,,0.00,0.0,WeatherDisplay:10.37,2013-02-19 06:17:00,
2013-02-19 01:22:00,32.2,16.9,29.85,ESE,112,12.3,12.3,53,0.00,OVC,,0.00,0.0,WeatherDisplay:10.37,2013-02-19 06:22:00,
2013-02-19 01:27:00,32.2,16.9,29.85,SE,135,10.5,10.5,53,0.00,OVC,,0.00,0.0,WeatherDisplay:10.37,2013-02-19 06:27:00,
2013-02-19 01:32:00,32.4,17.1,29.85,SSE,158,12.1,12.1,53,0.00,OVC,,0.00,0.0,WeatherDisplay:10.37,2013-02-19 06:32:00,
2013-02-19 01:37:00,32.5,17.3,29.85,SSW,202,7.6,7.6,53,0.00,OVC,,0.00,0.0,WeatherDisplay:10.37,2013-02-19 06:37:00,
2013-02-19 01:42:00,32.5,17.3,29.85,SE,135,8.1,8.1,53,0.00,OVC,,0.00,0.0,WeatherDisplay:10.37,2013-02-19 06:42:00,
2013-02-19 01:47:00,32.7,17.5,29.85,SSE,158,9.2,9.2,53,0.00,OVC,,0.00,0.0,WeatherDisplay:10.37,2013-02-19 06:47:00,
2013-02-19 01:52:00,32.7,17.5,29.85,WSW,248,6.2,6.2,53,0.00,OVC,,0.00,0.0,WeatherDisplay:10.37,2013-02-19 06:52:00,
2013-02-19 01:57:00,32.9,17.6,29.85,ESE,112,11.5,11.5,53,0.00,OVC,,0.00,0.0,WeatherDisplay:10.37,2013-02-19 06:57:00,
2013-02-19 02:02:00,33.1,17.8,29.85,WSW,248,9.2,9.2,53,0.00,OVC,,0.00,0.0,WeatherDisplay:10.37,2013-02-19 07:02:00,
2013-02-19 02:07:00,33.1,17.8,29.85,SSE,158,15.0,15.0,53,0.00,OVC,,0.00,0.0,WeatherDisplay:10.37,2013-02-19 07:07:00,
2013-02-19 02:12:00,33.1,17.8,29.83,SE,135,11.8,11.8,53,0.00,OVC,,0.00,0.0,WeatherDisplay:10.37,2013-02-19 07:12:00,
2013-02-19 02:17:00,33.3,18.0,29.83,SW,225,8.1,8.1,53,0.00,OVC,,0.00,0.0,WeatherDisplay:10.37,2013-02-19 07:17:00,
2013-02-19 02:22:00,33.3,18.0,29.83,ENE,68,8.1,8.1,53,0.00,OVC,,0.00,0.0,WeatherDisplay:10.37,2013-02-19 07:22:00,
2013-02-19 02:27:00,33.3,18.0,29.83,SSE,158,9.2,9.2,53,0.00,OVC,,0.00,0.0,WeatherDisplay:10.37,2013-02-19 07:27:00,
2013-02-19 02:32:00,33.3,18.0,29.83,ENE,68,8.1,8.1,53,0.00,OVC,,0.00,0.0,WeatherDisplay:10.37,2013-02-19 07:32:00,
2013-02-19 02:37:00,33.3,18.0,29.83,WSW,248,8.1,8.1,53,0.00,OVC,,0.00,0.0,WeatherDisplay:10.37,2013-02-19 07:37:00,
2013-02-19 02:42:00,33.3,18.0,29.83,SSE,158,12.7,12.7,53,0.00,OVC,,0.00,0.0,WeatherDisplay:10.37,2013-02-19 07:42:00,
2013-02-19 02:47:00,33.3,18.0,29.83,East,90,8.1,8.1,53,0.00,OVC,,0.00,0.0,WeatherDisplay:10.37,2013-02-19 07:47:00,
2013-02-19 02:52:00,33.4,18.1,29.83,ESE,112,8.5,8.5,53,0.00,OVC,,0.00,0.0,WeatherDisplay:10.37,2013-02-19 07:52:00,
2013-02-19 02:57:00,33.6,18.3,29.83,East,90,9.2,9.2,53,0.00,OVC,,0.00,0.0,WeatherDisplay:10.37,2013-02-19 07:57:00,
2013-02-19 03:02:00,33.6,18.3,29.83,SW,225,10.9,10.9,53,0.00,OVC,,0.00,0.0,WeatherDisplay:10.37,2013-02-19 08:02:00,
2013-02-19 03:07:00,33.8,18.0,29.83,SSE,158,9.2,9.2,52,0.00,OVC,,0.00,0.0,WeatherDisplay:10.37,2013-02-19 08:07:00,
2013-02-19 03:12:00,33.8,18.0,29.83,SSE,158,9.2,9.2,52,0.00,OVC,,0.00,0.0,WeatherDisplay:10.37,2013-02-19 08:12:00,
2013-02-19 03:17:00,34.0,18.2,29.83,SSE,158,10.7,10.7,52,0.00,OVC,,0.00,0.0,WeatherDisplay:10.37,2013-02-19 08:17:00,
2013-02-19 03:22:00,34.0,18.2,29.83,SSE,158,11.5,11.5,52,0.00,OVC,,0.00,0.0,WeatherDisplay:10.37,2013-02-19 08:22:00,
2013-02-19 03:27:00,33.8,18.0,29.80,South,180,8.1,8.1,52,0.00,OVC,,0.00,0.0,WeatherDisplay:10.37,2013-02-19 08:27:00,
2013-02-19 03:32:00,33.8,18.0,29.80,SSE,158,8.1,8.1,52,0.00,OVC,,0.00,0.0,WeatherDisplay:10.37,2013-02-19 08:32:00,
2013-02-19 03:37:00,33.6,18.3,29.80,ESE,112,10.4,10.4,53,0.00,OVC,,0.00,0.0,WeatherDisplay:10.37,2013-02-19 08:37:00,
2013-02-19 03:42:00,33.8,18.0,29.77,ESE,112,8.1,8.5,52,0.00,OVC,,0.00,0.0,WeatherDisplay:10.37,2013-02-19 08:42:00,
2013-02-19 03:47:00,33.8,18.0,29.77,SSE,158,5.8,6.2,52,0.00,OVC,,0.00,0.0,WeatherDisplay:10.37,2013-02-19 08:47:00,
2013-02-19 03:52:00,33.8,18.0,29.77,WSW,248,10.4,10.4,52,0.00,OVC,,0.00,0.0,WeatherDisplay:10.37,2013-02-19 08:52:00,
2013-02-19 03:57:00,33.6,18.3,29.77,WSW,248,5.8,5.8,53,0.00,OVC,,0.00,0.0,WeatherDisplay:10.37,2013-02-19 08:57:00,
2013-02-19 04:03:00,33.6,18.3,29.77,East,90,10.7,10.7,53,0.00,OVC,,0.00,0.0,WeatherDisplay:10.37,2013-02-19 09:03:00,
2013-02-19 04:08:00,33.6,18.3,29.77,NNE,22,10.5,10.5,53,0.00,OVC,,0.00,0.0,WeatherDisplay:10.37,2013-02-19 09:08:00,
2013-02-19 04:13:00,33.8,18.0,29.74,SSE,158,13.8,13.8,52,0.00,OVC,,0.00,0.0,WeatherDisplay:10.37,2013-02-19 09:13:00,
2013-02-19 04:18:00,33.6,18.3,29.74,SE,135,9.7,9.7,53,0.00,OVC,,0.00,0.0,WeatherDisplay:10.37,2013-02-19 09:18:00,
2013-02-19 04:23:00,33.6,18.3,29.74,SSE,158,6.9,6.9,53,0.00,OVC,,0.00,0.0,WeatherDisplay:10.37,2013-02-19 09:23:00,
2013-02-19 04:28:00,33.6,18.3,29.77,ESE,112,9.2,9.2,53,0.00,OVC,,0.00,0.0,WeatherDisplay:10.37,2013-02-19 09:28:00,
2013-02-19 04:33:00,33.6,18.3,29.77,ESE,112,9.2,9.2,53,0.00,OVC,,0.00,0.0,WeatherDisplay:10.37,2013-02-19 09:33:00,
2013-02-19 04:38:00,33.6,18.3,29.77,South,180,10.7,10.7,53,0.00,OVC,,0.00,0.0,WeatherDisplay:10.37,2013-02-19 09:38:00,
2013-02-19 04:43:00,33.8,18.0,29.77,ESE,112,9.2,9.2,52,0.00,OVC,,0.00,0.0,WeatherDisplay:10.37,2013-02-19 09:43:00,
2013-02-19 04:48:00,33.6,18.3,29.77,SSE,158,5.8,7.4,53,0.00,OVC,,0.00,0.0,WeatherDisplay:10.37,2013-02-19 09:48:00,
2013-02-19 04:53:00,33.6,18.3,29.77,ESE,112,10.2,10.2,53,0.00,OVC,,0.00,0.0,WeatherDisplay:10.37,2013-02-19 09:53:00,
2013-02-19 04:58:00,33.6,18.3,29.74,SSE,158,8.1,8.1,53,0.00,OVC,,0.00,0.0,WeatherDisplay:10.37,2013-02-19 09:58:00,
2013-02-19 05:03:00,33.6,18.3,29.74,NNE,22,8.1,8.1,53,0.00,OVC,,0.00,0.0,WeatherDisplay:10.37,2013-02-19 10:03:00,
2013-02-19 05:08:00,33.8,18.0,29.74,SE,135,8.1,8.1,52,0.00,OVC,,0.00,0.0,WeatherDisplay:10.37,2013-02-19 10:08:00,
2013-02-19 05:13:00,33.8,18.0,29.71,SE,135,11.5,11.5,52,0.00,OVC,,0.00,0.0,WeatherDisplay:10.37,2013-02-19 10:13:00,
2013-02-19 05:18:00,33.8,18.0,29.71,East,90,8.1,8.1,52,0.00,OVC,,0.00,0.0,WeatherDisplay:10.37,2013-02-19 10:18:00,
2013-02-19 05:23:00,34.2,18.3,29.71,SSE,158,10.9,10.9,52,0.00,OVC,,0.00,0.0,WeatherDisplay:10.37,2013-02-19 10:23:00,
2013-02-19 05:28:00,34.3,18.5,29.71,SSW,202,9.2,9.2,52,0.00,OVC,,0.00,0.0,WeatherDisplay:10.37,2013-02-19 10:28:00,
2013-02-19 05:33:00,34.7,18.9,29.71,ESE,112,8.1,8.1,52,0.00,OVC,,0.00,0.0,WeatherDisplay:10.37,2013-02-19 10:33:00,
2013-02-19 05:38:00,34.9,19.0,29.71,SE,135,10.4,10.4,52,0.00,OVC,,0.00,0.0,WeatherDisplay:10.37,2013-02-19 10:38:00,
2013-02-19 05:43:00,35.1,19.2,29.71,East,90,10.7,10.7,52,0.00,OVC,,0.00,0.0,WeatherDisplay:10.37,2013-02-19 10:43:00,
2013-02-19 05:48:00,35.1,19.2,29.71,SSE,158,10.4,10.4,52,0.00,OVC,,0.00,0.0,WeatherDisplay:10.37,2013-02-19 10:48:00,
2013-02-19 05:53:00,35.4,19.5,29.71,SSW,202,9.2,9.2,52,0.00,OVC,,0.00,0.0,WeatherDisplay:10.37,2013-02-19 10:53:00,
2013-02-19 05:58:00,35.4,19.5,29.71,ESE,112,9.2,9.2,52,0.00,OVC,,0.00,0.0,WeatherDisplay:10.37,2013-02-19 10:58:00,
2013-02-19 06:03:00,35.4,19.5,29.71,SE,135,15.0,15.0,52,0.00,OVC,,0.00,0.0,WeatherDisplay:10.37,2013-02-19 11:03:00,
2013-02-19 06:08:00,35.6,19.7,29.71,SE,135,11.5,11.5,52,0.00,OVC,,0.00,0.0,WeatherDisplay:10.37,2013-02-19 11:08:00,
2013-02-19 06:13:00,35.8,19.9,29.68,SE,135,8.1,8.1,52,0.00,OVC,,0.00,0.0,WeatherDisplay:10.37,2013-02-19 11:13:00,
2013-02-19 06:18:00,35.8,19.9,29.68,SSE,158,6.9,6.9,52,0.00,OVC,,0.00,0.0,WeatherDisplay:10.37,2013-02-19 11:18:00,
2013-02-19 06:23:00,36.0,20.0,29.68,SSE,158,8.1,8.1,52,0.00,OVC,,0.00,0.0,WeatherDisplay:10.37,2013-02-19 11:23:00,
2013-02-19 06:28:00,36.1,20.2,29.71,ESE,112,6.9,6.9,52,0.00,OVC,,0.00,0.0,WeatherDisplay:10.37,2013-02-19 11:28:00,
2013-02-19 06:33:00,36.1,20.2,29.71,ESE,112,6.9,6.9,52,0.00,OVC,,0.00,0.0,WeatherDisplay:10.37,2013-02-19 11:33:00,
2013-02-19 06:38:00,36.3,20.4,29.71,SSE,158,12.7,12.7,52,0.00,OVC,,0.00,0.0,WeatherDisplay:10.37,2013-02-19 11:38:00,
2013-02-19 06:43:00,36.3,20.4,29.68,SSE,158,6.9,6.9,52,0.00,OVC,,0.00,0.0,WeatherDisplay:10.37,2013-02-19 11:43:00,
2013-02-19 06:48:00,36.5,20.5,29.68,SSE,158,8.1,8.1,52,0.00,OVC,,0.00,0.0,WeatherDisplay:10.37,2013-02-19 11:48:00,
2013-02-19 06:53:00,36.5,20.5,29.68,SSE,158,9.2,9.2,52,0.00,OVC,,0.00,0.0,WeatherDisplay:10.37,2013-02-19 11:53:00,
2013-02-19 06:58:00,36.5,20.5,29.65,ESE,112,6.9,6.9,52,0.00,OVC,,0.00,0.0,WeatherDisplay:10.37,2013-02-19 11:58:00,
2013-02-19 07:03:00,36.7,20.7,29.65,SSE,158,9.2,9.2,52,0.00,OVC,,0.00,0.0,WeatherDisplay:10.37,2013-02-19 12:03:00,
2013-02-19 07:08:00,36.7,20.7,29.65,SSE,158,8.1,8.1,52,0.00,OVC,,0.00,0.0,WeatherDisplay:10.37,2013-02-19 12:08:00,
2013-02-19 07:13:00,36.7,20.7,29.65,ENE,68,6.2,6.2,52,0.00,OVC,,0.00,0.0,WeatherDisplay:10.37,2013-02-19 12:13:00,
2013-02-19 07:18:00,36.7,20.7,29.65,ESE,112,11.8,11.8,52,0.00,OVC,,0.00,0.0,WeatherDisplay:10.37,2013-02-19 12:18:00,
2013-02-19 07:23:00,36.9,20.9,29.65,SE,135,6.2,6.2,52,0.00,OVC,,0.00,0.0,WeatherDisplay:10.37,2013-02-19 12:23:00,
2013-02-19 07:28:00,36.9,20.9,29.65,NNW,338,8.1,8.1,52,0.00,OVC,,0.00,0.0,WeatherDisplay:10.37,2013-02-19 12:28:00,
2013-02-19 07:33:00,36.9,20.9,29.65,ESE,112,9.2,9.2,52,0.00,OVC,,0.00,0.0,WeatherDisplay:10.37,2013-02-19 12:33:00,
2013-02-19 07:38:00,37.0,21.0,29.65,SSE,158,5.8,5.8,52,0.00,OVC,,0.00,0.0,WeatherDisplay:10.37,2013-02-19 12:38:00,
2013-02-19 07:43:00,37.4,20.9,29.62,ESE,112,7.6,7.6,51,0.00,OVC,,0.00,0.0,WeatherDisplay:10.37,2013-02-19 12:43:00,
2013-02-19 07:48:00,37.6,21.1,29.62,ESE,112,5.8,5.8,51,0.00,OVC,,0.00,0.0,WeatherDisplay:10.37,2013-02-19 12:48:00,
2013-02-19 07:53:00,37.8,21.2,29.62,SSE,158,5.8,5.8,51,0.00,OVC,,0.00,0.0,WeatherDisplay:10.37,2013-02-19 12:53:00,
2013-02-19 07:58:00,37.9,21.4,29.65,ESE,112,4.6,4.6,51,0.00,OVC,,0.00,0.0,WeatherDisplay:10.37,2013-02-19 12:58:00,
2013-02-19 08:03:00,38.1,21.6,29.65,ESE,112,8.1,8.1,51,0.00,-RA,,0.00,0.0,WeatherDisplay:10.37,2013-02-19 13:03:00,
2013-02-19 08:08:00,38.1,21.6,29.65,ESE,112,5.8,5.8,51,0.00,-RA,,0.00,0.0,WeatherDisplay:10.37,2013-02-19 13:08:00,
2013-02-19 08:13:00,38.3,21.7,29.65,ESE,112,4.6,4.6,51,0.00,-RA,,0.00,0.0,WeatherDisplay:10.37,2013-02-19 13:13:00,
2013-02-19 08:18:00,38.5,21.9,29.65,SE,135,6.9,6.9,51,0.00,-RA,,0.00,0.0,WeatherDisplay:10.37,2013-02-19 13:18:00,
2013-02-19 08:23:00,38.5,21.9,29.65,SSE,158,8.1,8.1,51,0.00,-RA,,0.00,0.0,WeatherDisplay:10.37,2013-02-19 13:23:00,
2013-02-19 08:28:00,38.5,21.9,29.65,SSE,158,4.6,4.6,51,0.00,-RA,,0.00,0.0,WeatherDisplay:10.37,2013-02-19 13:28:00,
2013-02-19 08:33:00,38.7,22.1,29.65,SSW,202,5.8,5.8,51,0.00,-RA,,0.00,0.0,WeatherDisplay:10.37,2013-02-19 13:33:00,
2013-02-19 08:38:00,38.8,22.2,29.65,SSE,158,8.1,8.1,51,0.00,-RA,,0.00,0.0,WeatherDisplay:10.37,2013-02-19 13:38:00,
2013-02-19 08:43:00,38.7,22.1,29.65,SSE,158,3.5,3.5,51,0.00,-RA,,0.00,0.0,WeatherDisplay:10.37,2013-02-19 13:43:00,
2013-02-19 08:48:00,38.7,22.1,29.65,North,0,4.6,4.6,51,0.00,-RA,,0.00,0.0,WeatherDisplay:10.37,2013-02-19 13:48:00,
2013-02-19 08:53:00,38.7,22.1,29.65,SSE,158,4.6,4.6,51,0.00,-RA,,0.00,0.0,WeatherDisplay:10.37,2013-02-19 13:53:00,
2013-02-19 08:58:00,38.8,22.2,29.65,SSW,202,12.7,12.7,51,0.00,-RA,,0.00,0.0,WeatherDisplay:10.37,2013-02-19 13:58:00,
2013-02-19 09:03:00,38.8,22.2,29.65,SSW,202,8.1,8.1,51,0.00,-RA,,0.00,0.0,WeatherDisplay:10.37,2013-02-19 14:03:00,
2013-02-19 09:08:00,38.8,22.2,29.65,SSE,158,9.2,9.2,51,0.00,-RA,,0.00,0.0,WeatherDisplay:10.37,2013-02-19 14:08:00,
2013-02-19 09:13:00,38.7,22.1,29.65,SE,135,10.2,10.2,51,0.00,-RA,,0.00,0.0,WeatherDisplay:10.37,2013-02-19 14:13:00,
2013-02-19 09:18:00,38.5,21.9,29.65,South,180,9.2,9.2,51,0.00,-RA,,0.00,0.0,WeatherDisplay:10.37,2013-02-19 14:18:00,
2013-02-19 09:23:00,38.3,21.7,29.65,ESE,112,7.6,7.6,51,0.00,-RA,,0.00,0.0,WeatherDisplay:10.37,2013-02-19 14:23:00,
2013-02-19 09:28:00,38.1,21.6,29.62,SE,135,8.5,8.5,51,0.00,-RA,,0.00,0.0,WeatherDisplay:10.37,2013-02-19 14:28:00,
2013-02-19 09:33:00,37.8,21.2,29.62,SSW,202,8.1,8.1,51,0.00,-RA,,0.00,0.0,WeatherDisplay:10.37,2013-02-19 14:33:00,
2013-02-19 09:38:00,37.6,21.1,29.62,SSW,202,6.9,6.9,51,0.00,-RA,,0.00,0.0,WeatherDisplay:10.37,2013-02-19 14:38:00,
2013-02-19 09:43:00,37.4,20.9,29.62,ESE,112,9.2,9.2,51,0.00,-RA,,0.00,0.0,WeatherDisplay:10.37,2013-02-19 14:43:00,
2013-02-19 09:48:00,37.2,21.2,29.62,SSW,202,7.6,7.6,52,0.00,-RA,,0.00,0.0,WeatherDisplay:10.37,2013-02-19 14:48:00,
2013-02-19 09:53:00,37.2,22.1,29.62,SSE,158,9.2,9.2,54,0.04,-RA,,0.04,0.0,WeatherDisplay:10.37,2013-02-19 14:53:00,
2013-02-19 09:58:00,37.2,23.4,29.62,SSE,158,10.0,10.0,57,0.04,-RA,,0.04,0.0,WeatherDisplay:10.37,2013-02-19 14:58:00,
2013-02-19 10:03:00,37.0,24.0,29.62,SSE,158,10.5,10.5,59,0.04,-RA,,0.04,0.0,WeatherDisplay:10.37,2013-02-19 15:03:00,
2013-02-19 10:08:00,37.0,24.4,29.62,SSW,202,9.2,9.2,60,0.04,-RA,,0.04,0.0,WeatherDisplay:10.37,2013-02-19 15:08:00,
2013-02-19 10:13:00,37.0,24.4,29.62,South,180,6.9,6.9,60,0.04,-RA,,0.04,0.0,WeatherDisplay:10.37,2013-02-19 15:13:00,
2013-02-19 10:18:00,37.0,24.4,29.62,East,90,9.7,9.7,60,0.04,-RA,,0.04,0.0,WeatherDisplay:10.37,2013-02-19 15:18:00,
2013-02-19 10:23:00,37.2,24.6,29.62,SSW,202,8.1,8.1,60,0.04,-RA,,0.04,0.0,WeatherDisplay:10.37,2013-02-19 15:23:00,
2013-02-19 10:28:00,37.2,24.6,29.59,ESE,112,10.0,10.0,60,0.04,-RA,,0.04,0.0,WeatherDisplay:10.37,2013-02-19 15:28:00,
2013-02-19 10:33:00,37.0,24.4,29.59,SSW,202,9.2,9.2,60,0.04,-RA,,0.04,0.0,WeatherDisplay:10.37,2013-02-19 15:33:00,
2013-02-19 10:38:00,36.9,24.3,29.59,East,90,6.9,6.9,60,0.04,-RA,,0.04,0.0,WeatherDisplay:10.37,2013-02-19 15:38:00,
2013-02-19 10:43:00,36.9,24.3,29.59,SE,135,7.6,7.6,60,0.04,-RA,,0.04,0.0,WeatherDisplay:10.37,2013-02-19 15:43:00,
2013-02-19 10:48:00,36.9,24.3,29.59,South,180,5.8,5.8,60,0.04,-RA,,0.04,0.0,WeatherDisplay:10.37,2013-02-19 15:48:00,
2013-02-19 10:53:00,36.9,24.3,29.59,WSW,248,7.1,7.1,60,0.00,-RA,,0.04,0.0,WeatherDisplay:10.37,2013-02-19 15:53:00,
2013-02-19 10:58:00,37.2,24.6,29.59,SSE,158,5.8,5.8,60,0.00,-RA,,0.04,0.0,WeatherDisplay:10.37,2013-02-19 15:58:00,
2013-02-19 11:03:00,37.4,24.8,29.59,SW,225,9.2,9.2,60,0.00,OVC,,0.04,0.0,WeatherDisplay:10.37,2013-02-19 16:03:00,
2013-02-19 11:08:00,37.6,24.9,29.59,ESE,112,8.1,8.1,60,0.00,OVC,,0.04,0.0,WeatherDisplay:10.37,2013-02-19 16:08:00,
2013-02-19 11:13:00,37.8,25.1,29.59,ESE,112,5.8,5.8,60,0.00,OVC,,0.04,0.0,WeatherDisplay:10.37,2013-02-19 16:13:00,
2013-02-19 11:19:00,37.6,24.5,29.59,ESE,112,8.1,8.1,59,0.00,OVC,,0.04,0.0,WeatherDisplay:10.37,2013-02-19 16:19:00,
2013-02-19 11:24:00,37.6,24.5,29.59,ENE,68,6.9,6.9,59,0.00,OVC,,0.04,0.0,WeatherDisplay:10.37,2013-02-19 16:24:00,
2013-02-19 11:29:00,37.6,24.5,29.59,ESE,112,6.9,6.9,59,0.00,OVC,,0.04,0.0,WeatherDisplay:10.37,2013-02-19 16:29:00,
2013-02-19 11:34:00,37.6,24.5,29.59,SSE,158,4.6,4.6,59,0.00,OVC,,0.04,0.0,WeatherDisplay:10.37,2013-02-19 16:34:00,
2013-02-19 11:39:00,37.6,24.5,29.59,SSW,202,6.9,6.9,59,0.00,OVC,,0.04,0.0,WeatherDisplay:10.37,2013-02-19 16:39:00,
2013-02-19 11:44:00,37.6,24.5,29.59,SE,135,5.8,5.8,59,0.00,OVC,,0.04,0.0,WeatherDisplay:10.37,2013-02-19 16:44:00,
2013-02-19 11:49:00,37.8,24.7,29.59,NNW,338,7.8,7.8,59,0.00,OVC,,0.04,0.0,WeatherDisplay:10.37,2013-02-19 16:49:00,
2013-02-19 11:54:00,37.8,24.7,29.59,SE,135,8.1,8.1,59,0.00,OVC,,0.04,0.0,WeatherDisplay:10.37,2013-02-19 16:54:00,
2013-02-19 11:59:00,37.8,24.7,29.59,East,90,6.9,6.9,59,0.00,OVC,,0.04,0.0,WeatherDisplay:10.37,2013-02-19 16:59:00,
2013-02-19 12:04:00,37.9,24.9,29.59,ESE,112,3.8,5.6,59,0.00,OVC,,0.04,0.0,WeatherDisplay:10.37,2013-02-19 17:04:00,
2013-02-19 12:09:00,38.3,25.2,29.59,SE,135,8.1,8.1,59,0.00,OVC,,0.04,0.0,WeatherDisplay:10.37,2013-02-19 17:09:00,
2013-02-19 12:14:00,38.5,25.4,29.56,ESE,112,7.4,7.4,59,0.00,OVC,,0.04,0.0,WeatherDisplay:10.37,2013-02-19 17:14:00,
2013-02-19 12:19:00,38.5,24.1,29.56,SW,225,5.8,5.8,56,0.00,OVC,,0.04,0.0,WeatherDisplay:10.37,2013-02-19 17:19:00,
2013-02-19 12:24:00,38.5,24.1,29.56,ESE,112,8.1,8.1,56,0.00,OVC,,0.04,0.0,WeatherDisplay:10.37,2013-02-19 17:24:00,
2013-02-19 12:29:00,38.7,24.3,29.56,ESE,112,5.8,5.8,56,0.00,OVC,,0.04,0.0,WeatherDisplay:10.37,2013-02-19 17:29:00,
2013-02-19 12:34:00,38.7,24.3,29.56,South,180,6.9,6.9,56,0.00,OVC,,0.04,0.0,WeatherDisplay:10.37,2013-02-19 17:34:00,
2013-02-19 12:39:00,38.8,24.5,29.56,SSE,158,5.9,5.9,56,0.00,OVC,,0.04,0.0,WeatherDisplay:10.37,2013-02-19 17:39:00,
2013-02-19 12:44:00,39.0,24.6,29.53,SSW,202,8.1,8.1,56,0.00,OVC,,0.04,0.0,WeatherDisplay:10.37,2013-02-19 17:44:00,
2013-02-19 12:49:00,39.4,23.7,29.53,East,90,5.8,6.0,53,0.00,OVC,,0.04,0.0,WeatherDisplay:10.37,2013-02-19 17:49:00,
2013-02-19 12:54:00,40.3,24.5,29.53,SSE,158,6.9,6.9,53,0.00,OVC,,0.04,0.0,WeatherDisplay:10.37,2013-02-19 17:54:00,
2013-02-19 12:59:00,40.5,24.7,29.53,SSE,158,7.1,7.1,53,0.00,OVC,,0.04,0.0,WeatherDisplay:10.37,2013-02-19 17:59:00,
2013-02-19 13:04:00,40.6,24.8,29.53,ESE,112,3.5,3.5,53,0.00,OVC,,0.04,0.0,WeatherDisplay:10.37,2013-02-19 18:04:00,
2013-02-19 13:09:00,41.0,25.2,29.53,SSE,158,9.2,9.2,53,0.00,OVC,,0.04,0.0,WeatherDisplay:10.37,2013-02-19 18:09:00,
2013-02-19 13:14:00,41.0,25.2,29.53,SSE,158,5.8,6.7,53,0.00,OVC,,0.04,0.0,WeatherDisplay:10.37,2013-02-19 18:14:00,
2013-02-19 13:19:00,42.3,25.4,29.53,West,270,8.7,8.7,51,0.00,OVC,,0.04,0.0,WeatherDisplay:10.37,2013-02-19 18:19:00,
2013-02-19 13:24:00,43.9,26.4,29.53,SSW,202,8.1,8.1,50,0.00,OVC,,0.04,0.0,WeatherDisplay:10.37,2013-02-19 18:24:00,
2013-02-19 13:29:00,44.6,27.1,29.53,SSE,158,8.1,8.1,50,0.00,OVC,,0.04,0.0,WeatherDisplay:10.37,2013-02-19 18:29:00,
2013-02-19 13:34:00,44.1,26.6,29.53,NNW,338,6.9,6.9,50,0.00,OVC,,0.04,0.0,WeatherDisplay:10.37,2013-02-19 18:34:00,
2013-02-19 13:39:00,43.3,25.9,29.53,SSE,158,10.4,10.4,50,0.00,OVC,,0.04,0.0,WeatherDisplay:10.37,2013-02-19 18:39:00,
2013-02-19 13:44:00,43.0,25.6,29.53,ENE,68,10.4,10.4,50,0.00,OVC,,0.04,0.0,WeatherDisplay:10.37,2013-02-19 18:44:00,
2013-02-19 13:49:00,43.0,25.6,29.53,NNE,22,8.1,8.1,50,0.00,OVC,,0.04,0.0,WeatherDisplay:10.37,2013-02-19 18:49:00,
2013-02-19 13:54:00,42.8,25.4,29.53,ESE,112,5.9,5.9,50,0.00,OVC,,0.04,0.0,WeatherDisplay:10.37,2013-02-19 18:54:00,
2013-02-19 13:59:00,42.3,25.4,29.53,ESE,112,8.1,8.1,51,0.00,OVC,,0.04,0.0,WeatherDisplay:10.37,2013-02-19 18:59:00,
2013-02-19 14:04:00,42.3,25.4,29.53,SSE,158,5.8,5.8,51,0.00,-RA,,0.04,0.0,WeatherDisplay:10.37,2013-02-19 19:04:00,
2013-02-19 14:09:00,42.3,25.4,29.53,South,180,8.1,8.1,51,0.00,-RA,,0.04,0.0,WeatherDisplay:10.37,2013-02-19 19:09:00,
2013-02-19 14:14:00,42.3,25.4,29.50,South,180,6.9,6.9,51,0.00,-RA,,0.04,0.0,WeatherDisplay:10.37,2013-02-19 19:14:00,
2013-02-19 14:19:00,42.3,25.4,29.50,South,180,4.6,4.6,51,0.00,-RA,,0.04,0.0,WeatherDisplay:10.37,2013-02-19 19:19:00,
2013-02-19 14:24:00,42.1,25.2,29.50,West,270,4.3,4.3,51,0.00,-RA,,0.04,0.0,WeatherDisplay:10.37,2013-02-19 19:24:00,
2013-02-19 14:29:00,40.3,24.5,29.53,West,270,21.9,21.9,53,0.00,-RA,,0.04,0.0,WeatherDisplay:10.37,2013-02-19 19:29:00,
2013-02-19 14:34:00,38.1,26.2,29.53,West,270,12.7,13.2,62,0.00,-RA,,0.04,0.0,WeatherDisplay:10.37,2013-02-19 19:34:00,
2013-02-19 14:39:00,37.8,26.7,29.53,West,270,17.3,17.3,64,0.00,-RA,,0.04,0.0,WeatherDisplay:10.37,2013-02-19 19:39:00,
2013-02-19 14:44:00,37.2,26.2,29.53,WNW,292,13.8,13.8,64,0.00,-RA,,0.04,0.0,WeatherDisplay:10.37,2013-02-19 19:44:00,
2013-02-19 14:49:00,36.7,26.7,29.53,West,270,14.7,14.7,67,0.00,-RA,,0.04,0.0,WeatherDisplay:10.37,2013-02-19 19:49:00,
2013-02-19 14:54:00,36.5,27.3,29.50,West,270,12.7,12.7,69,0.00,-RA,,0.04,0.0,WeatherDisplay:10.37,2013-02-19 19:54:00,
2013-02-19 14:59:00,36.3,27.1,29.50,WSW,248,13.8,13.8,69,0.00,-RA,,0.04,0.0,WeatherDisplay:10.37,2013-02-19 19:59:00,
2013-02-19 15:04:00,36.3,27.1,29.50,WSW,248,15.2,15.2,69,0.00,-SN,,0.04,0.0,WeatherDisplay:10.37,2013-02-19 20:04:00,
2013-02-19 15:09:00,36.1,26.9,29.50,WNW,292,8.1,8.1,69,0.00,-SN,,0.04,0.0,WeatherDisplay:10.37,2013-02-19 20:09:00,
2013-02-19 15:14:00,36.0,26.8,29.50,WSW,248,15.2,15.2,69,0.00,-SN,,0.04,0.0,WeatherDisplay:10.37,2013-02-19 20:14:00,
2013-02-19 15:19:00,35.8,26.6,29.50,West,270,15.2,15.2,69,0.00,-SN,,0.04,0.0,WeatherDisplay:10.37,2013-02-19 20:19:00,
2013-02-19 15:24:00,35.4,24.4,29.53,West,270,25.1,25.1,64,0.00,-SN,,0.04,0.0,WeatherDisplay:10.37,2013-02-19 20:24:00,
2013-02-19 15:29:00,35.1,23.3,29.53,WSW,248,26.1,26.1,62,0.00,-SN,,0.04,0.0,WeatherDisplay:10.37,2013-02-19 20:29:00,
2013-02-19 15:34:00,35.1,23.0,29.53,West,270,20.7,20.7,61,0.00,-SN,,0.04,0.0,WeatherDisplay:10.37,2013-02-19 20:34:00,
2013-02-19 15:39:00,34.5,22.4,29.53,WNW,292,19.7,19.7,61,0.00,-SN,,0.04,0.0,WeatherDisplay:10.37,2013-02-19 20:39:00,
2013-02-19 15:44:00,34.3,22.3,29.56,West,270,23.0,23.0,61,0.00,-SN,,0.04,0.0,WeatherDisplay:10.37,2013-02-19 20:44:00,
2013-02-19 15:49:00,34.3,21.9,29.56,West,270,20.7,20.7,60,0.00,-SN,,0.04,0.0,WeatherDisplay:10.37,2013-02-19 20:49:00,
2013-02-19 15:54:00,34.2,21.7,29.56,West,270,21.9,21.9,60,0.00,-SN,,0.04,0.0,WeatherDisplay:10.37,2013-02-19 20:54:00,
2013-02-19 15:59:00,34.0,21.5,29.56,West,270,21.0,21.0,60,0.00,-SN,,0.04,0.0,WeatherDisplay:10.37,2013-02-19 20:59:00,
2013-02-19 16:04:00,33.8,21.4,29.56,West,270,19.0,19.0,60,0.00,-SN,,0.04,0.0,WeatherDisplay:10.37,2013-02-19 21:04:00,
2013-02-19 16:09:00,33.6,21.2,29.59,WNW,292,27.6,27.6,60,0.00,-SN,,0.04,0.0,WeatherDisplay:10.37,2013-02-19 21:09:00,
2013-02-19 16:14:00,33.3,21.3,29.59,WNW,292,25.9,25.9,61,0.00,-SN,,0.04,0.0,WeatherDisplay:10.37,2013-02-19 21:14:00,
2013-02-19 16:19:00,33.1,22.2,29.59,West,270,25.6,25.6,64,0.00,-SN,,0.04,0.0,WeatherDisplay:10.37,2013-02-19 21:19:00,
2013-02-19 16:24:00,32.7,24.3,29.59,WNW,292,20.7,20.8,71,0.00,-SN,,0.04,0.0,WeatherDisplay:10.37,2013-02-19 21:24:00,
2013-02-19 16:29:00,32.5,23.5,29.59,WSW,248,14.5,14.5,69,0.00,-SN,,0.04,0.0,WeatherDisplay:10.37,2013-02-19 21:29:00,
2013-02-19 16:34:00,32.5,21.0,29.59,WNW,292,29.9,29.9,62,0.00,-SN,,0.04,0.0,WeatherDisplay:10.37,2013-02-19 21:34:00,
2013-02-19 16:39:00,32.4,20.4,29.59,West,270,24.2,24.2,61,0.00,-SN,,0.04,0.0,WeatherDisplay:10.37,2013-02-19 21:39:00,
2013-02-19 16:44:00,32.4,20.0,29.59,West,270,26.5,26.5,60,0.00,-SN,,0.04,0.0,WeatherDisplay:10.37,2013-02-19 21:44:00,
2013-02-19 16:49:00,32.4,20.0,29.59,WSW,248,17.3,17.3,60,0.00,-SN,,0.04,0.0,WeatherDisplay:10.37,2013-02-19 21:49:00,
2013-02-19 16:54:00,32.4,20.0,29.62,West,270,23.0,23.0,60,0.00,-SN,,0.04,0.0,WeatherDisplay:10.37,2013-02-19 21:54:00,
2013-02-19 16:59:00,32.4,19.2,29.62,WNW,292,15.0,15.0,58,0.00,-SN,,0.04,0.0,WeatherDisplay:10.37,2013-02-19 21:59:00,
2013-02-19 17:04:00,32.2,19.0,29.62,WSW,248,21.9,21.9,58,0.00,OVC,,0.04,0.0,WeatherDisplay:10.37,2013-02-19 22:04:00,
2013-02-19 17:09:00,32.2,17.8,29.62,WSW,248,25.3,25.3,55,0.00,OVC,,0.04,0.0,WeatherDisplay:10.37,2013-02-19 22:09:00,
2013-02-19 17:14:00,32.0,17.6,29.62,West,270,21.9,21.9,55,0.00,OVC,,0.04,0.0,WeatherDisplay:10.37,2013-02-19 22:14:00,
2013-02-19 17:19:00,32.0,17.6,29.62,WSW,248,24.2,24.2,55,0.00,OVC,,0.04,0.0,WeatherDisplay:10.37,2013-02-19 22:19:00,
2013-02-19 17:24:00,31.8,17.5,29.62,West,270,16.1,16.1,55,0.00,OVC,,0.04,0.0,WeatherDisplay:10.37,2013-02-19 22:24:00,
2013-02-19 17:29:00,31.8,16.6,29.62,West,270,19.7,19.7,53,0.00,OVC,,0.04,0.0,WeatherDisplay:10.37,2013-02-19 22:29:00,
2013-02-19 17:34:00,31.8,17.5,29.62,WSW,248,16.1,16.1,55,0.00,OVC,,0.04,0.0,WeatherDisplay:10.37,2013-02-19 22:34:00,
2013-02-19 17:39:00,31.6,16.4,29.65,West,270,12.7,12.7,53,0.00,OVC,,0.04,0.0,WeatherDisplay:10.37,2013-02-19 22:39:00,
2013-02-19 17:44:00,31.6,16.4,29.65,West,270,13.8,13.8,53,0.00,OVC,,0.04,0.0,WeatherDisplay:10.37,2013-02-19 22:44:00,
2013-02-19 17:49:00,31.6,16.4,29.65,WSW,248,17.3,17.3,53,0.00,OVC,,0.04,0.0,WeatherDisplay:10.37,2013-02-19 22:49:00,
2013-02-19 17:54:00,31.6,16.4,29.65,WSW,248,17.0,17.0,53,0.00,OVC,,0.04,0.0,WeatherDisplay:10.37,2013-02-19 22:54:00,
2013-02-19 17:59:00,31.6,16.4,29.65,West,270,17.3,17.3,53,0.00,OVC,,0.04,0.0,WeatherDisplay:10.37,2013-02-19 22:59:00,
2013-02-19 18:04:00,31.6,16.4,29.65,WSW,248,19.6,19.6,53,0.00,OVC,,0.04,0.0,WeatherDisplay:10.37,2013-02-19 23:04:00,
2013-02-19 18:09:00,31.6,16.4,29.65,WSW,248,19.6,19.6,53,0.00,OVC,,0.04,0.0,WeatherDisplay:10.37,2013-02-19 23:09:00,
2013-02-19 18:14:00,31.6,16.4,29.65,WSW,248,17.3,17.3,53,0.00,OVC,,0.04,0.0,WeatherDisplay:10.37,2013-02-19 23:14:00,
2013-02-19 18:19:00,31.6,16.4,29.65,WSW,248,12.7,12.7,53,0.00,OVC,,0.04,0.0,WeatherDisplay:10.37,2013-02-19 23:19:00,
2013-02-19 18:24:00,31.6,16.4,29.65,West,270,9.2,9.2,53,0.00,OVC,,0.04,0.0,WeatherDisplay:10.37,2013-02-19 23:24:00,
2013-02-19 18:29:00,31.8,16.6,29.65,WSW,248,15.2,15.2,53,0.00,OVC,,0.04,0.0,WeatherDisplay:10.37,2013-02-19 23:29:00,
2013-02-19 18:34:00,31.8,16.6,29.65,West,270,12.7,12.7,53,0.00,OVC,,0.04,0.0,WeatherDisplay:10.37,2013-02-19 23:34:00,
2013-02-19 18:39:00,31.8,16.6,29.65,WNW,292,12.7,12.7,53,0.00,OVC,,0.04,0.0,WeatherDisplay:10.37,2013-02-19 23:39:00,
2013-02-19 18:44:00,31.8,16.6,29.65,WSW,248,19.6,19.6,53,0.00,OVC,,0.04,0.0,WeatherDisplay:10.37,2013-02-19 23:44:00,
2013-02-19 18:49:00,32.0,16.8,29.65,WNW,292,13.8,13.8,53,0.00,OVC,,0.04,0.0,WeatherDisplay:10.37,2013-02-19 23:49:00,
2013-02-19 18:54:00,31.8,16.6,29.65,WSW,248,12.7,12.7,53,0.00,OVC,,0.04,0.0,WeatherDisplay:10.37,2013-02-19 23:54:00,
2013-02-19 18:59:00,31.8,16.6,29.65,WSW,248,13.8,13.8,53,0.00,OVC,,0.04,0.0,WeatherDisplay:10.37,2013-02-19 23:59:00,
2013-02-19 19:04:00,31.8,16.6,29.65,WNW,292,15.4,15.4,53,0.00,-SN,,0.04,0.0,WeatherDisplay:10.37,2013-02-20 00:04:00,
2013-02-19 19:09:00,31.8,16.6,29.65,WSW,248,17.3,17.3,53,0.00,-SN,,0.04,0.0,WeatherDisplay:10.37,2013-02-20 00:09:00,
2013-02-19 19:14:00,31.5,16.3,29.65,WNW,292,14.5,14.5,53,0.00,-SN,,0.04,0.0,WeatherDisplay:10.37,2013-02-20 00:14:00,
2013-02-19 19:19:00,31.5,16.3,29.65,West,270,15.4,15.4,53,0.00,-SN,,0.04,0.0,WeatherDisplay:10.37,2013-02-20 00:19:00,
2013-02-19 19:24:00,31.3,16.1,29.65,West,270,15.0,15.0,53,0.00,-SN,,0.04,0.0,WeatherDisplay:10.37,2013-02-20 00:24:00,
2013-02-19 19:29:00,31.3,16.1,29.65,West,270,17.6,17.6,53,0.00,-SN,,0.04,0.0,WeatherDisplay:10.37,2013-02-20 00:29:00,
2013-02-19 19:34:00,31.1,15.9,29.65,West,270,26.6,26.6,53,0.00,-SN,,0.04,0.0,WeatherDisplay:10.37,2013-02-20 00:34:00,
2013-02-19 19:39:00,30.9,15.8,29.65,WSW,248,22.3,22.3,53,0.00,-SN,,0.04,0.0,WeatherDisplay:10.37,2013-02-20 00:39:00,
2013-02-19 19:44:00,30.6,15.4,29.65,WNW,292,19.6,19.6,53,0.00,-SN,,0.04,0.0,WeatherDisplay:10.37,2013-02-20 00:44:00,
2013-02-19 19:49:00,30.6,15.4,29.65,West,270,25.3,25.3,53,0.00,-SN,,0.04,0.0,WeatherDisplay:10.37,2013-02-20 00:49:00,
2013-02-19 19:54:00,30.6,15.4,29.65,WSW,248,23.2,23.2,53,0.00,-SN,,0.04,0.0,WeatherDisplay:10.37,2013-02-20 00:54:00,
2013-02-19 19:59:00,30.4,15.3,29.65,WNW,292,24.2,24.2,53,0.00,-SN,,0.04,0.0,WeatherDisplay:10.37,2013-02-20 00:59:00,
2013-02-19 20:04:00,30.4,15.3,29.65,West,270,19.6,19.6,53,0.00,-SN,,0.04,0.0,WeatherDisplay:10.37,2013-02-20 01:04:00,
2013-02-19 20:09:00,30.2,15.1,29.65,WNW,292,20.4,20.4,53,0.00,-SN,,0.04,0.0,WeatherDisplay:10.37,2013-02-20 01:09:00,
2013-02-19 20:14:00,30.2,15.1,29.65,WSW,248,25.6,25.6,53,0.00,-SN,,0.04,0.0,WeatherDisplay:10.37,2013-02-20 01:14:00,
2013-02-19 20:19:00,30.2,15.1,29.65,West,270,23.0,23.0,53,0.00,-SN,,0.04,0.0,WeatherDisplay:10.37,2013-02-20 01:19:00,
2013-02-19 20:24:00,30.2,15.1,29.68,WNW,292,15.0,15.0,53,0.00,-SN,,0.04,0.0,WeatherDisplay:10.37,2013-02-20 01:24:00,
2013-02-19 20:29:00,30.2,15.1,29.68,West,270,14.7,14.7,53,0.00,-SN,,0.04,0.0,WeatherDisplay:10.37,2013-02-20 01:29:00,
2013-02-19 20:34:00,30.0,14.9,29.68,West,273,17.0,23.0,53,0.00,-SN,,0.04,0.0,WeatherDisplay:10.37,2013-02-20 01:34:00,
2013-02-19 20:40:00,29.7,14.6,29.65,West,270,29.9,29.9,53,0.00,-SN,,0.04,0.0,WeatherDisplay:10.37,2013-02-20 01:40:00,
2013-02-19 20:45:00,29.7,14.6,29.65,WNW,292,26.5,26.5,53,0.00,-SN,,0.04,0.0,WeatherDisplay:10.37,2013-02-20 01:45:00,
2013-02-19 20:49:00,29.5,14.4,29.65,WSW,248,17.3,17.3,53,0.00,-SN,,0.04,0.0,WeatherDisplay:10.37,2013-02-20 01:49:00,
2013-02-19 20:54:00,29.5,14.4,29.67,West,263,16.0,29.0,53,0.00,-SN,,0.04,0.0,WeatherDisplay:10.37,2013-02-20 01:54:00,
2013-02-19 20:59:00,29.3,14.3,29.68,West,267,14.0,22.0,53,0.00,-SN,,0.04,0.0,WeatherDisplay:10.37,2013-02-20 01:59:00,
2013-02-19 21:04:00,29.1,14.1,29.68,West,279,18.0,23.0,53,0.00,-SN,,0.04,0.0,WeatherDisplay:10.37,2013-02-20 02:04:00,
2013-02-19 21:10:00,28.6,13.6,29.68,WNW,282,23.0,31.0,53,0.00,-SN,,0.04,0.0,WeatherDisplay:10.37,2013-02-20 02:10:00,
2013-02-19 21:15:00,28.4,13.4,29.68,WNW,292,23.7,23.7,53,0.00,-SN,,0.04,0.0,WeatherDisplay:10.37,2013-02-20 02:15:00,
2013-02-19 21:20:00,28.4,13.4,29.68,West,268,17.0,28.0,53,0.00,-SN,,0.04,0.0,WeatherDisplay:10.37,2013-02-20 02:20:00,
2013-02-19 21:25:00,28.2,13.3,29.71,WNW,292,25.3,25.3,53,0.00,-SN,,0.04,0.0,WeatherDisplay:10.37,2013-02-20 02:25:00,
2013-02-19 21:30:00,28.2,13.3,29.71,West,267,16.0,28.0,53,0.00,-SN,,0.04,0.0,WeatherDisplay:10.37,2013-02-20 02:30:00,
2013-02-19 21:35:00,28.2,13.3,29.71,WSW,248,23.0,23.0,53,0.00,-SN,,0.04,0.0,WeatherDisplay:10.37,2013-02-20 02:35:00,
2013-02-19 21:40:00,28.0,13.1,29.71,WNW,292,23.0,23.0,53,0.00,-SN,,0.04,0.0,WeatherDisplay:10.37,2013-02-20 02:40:00,
2013-02-19 21:45:00,28.0,13.1,29.71,West,270,21.9,21.9,53,0.00,-SN,,0.04,0.0,WeatherDisplay:10.37,2013-02-20 02:45:00,
2013-02-19 21:50:00,27.9,12.9,29.71,West,270,31.1,31.1,53,0.00,-SN,,0.04,0.0,WeatherDisplay:10.37,2013-02-20 02:50:00,
2013-02-19 21:55:00,27.9,12.9,29.71,WSW,248,21.9,21.9,53,0.00,-SN,,0.04,0.0,WeatherDisplay:10.37,2013-02-20 02:55:00,
2013-02-19 22:00:00,27.9,12.9,29.71,West,270,25.9,25.9,53,0.00,-SN,,0.04,0.0,WeatherDisplay:10.37,2013-02-20 03:00:00,
2013-02-19 22:05:00,27.7,12.8,29.71,WSW,248,28.8,28.8,53,0.00,-SN,,0.04,0.0,WeatherDisplay:10.37,2013-02-20 03:05:00,
2013-02-19 22:10:00,27.5,12.6,29.71,WSW,248,19.4,19.4,53,0.00,-SN,,0.04,0.0,WeatherDisplay:10.37,2013-02-20 03:10:00,
2013-02-19 22:15:00,27.3,12.4,29.71,West,270,17.6,17.6,53,0.00,-SN,,0.04,0.0,WeatherDisplay:10.37,2013-02-20 03:15:00,
2013-02-19 22:20:00,27.3,12.4,29.71,West,270,23.0,23.0,53,0.00,-SN,,0.04,0.0,WeatherDisplay:10.37,2013-02-20 03:20:00,
2013-02-19 22:25:00,27.1,12.3,29.71,West,270,17.5,17.5,53,0.00,-SN,,0.04,0.0,WeatherDisplay:10.37,2013-02-20 03:25:00,
2013-02-19 22:30:00,27.1,12.3,29.71,West,270,19.9,19.9,53,0.00,-SN,,0.04,0.0,WeatherDisplay:10.37,2013-02-20 03:30:00,
2013-02-19 22:35:00,27.1,12.3,29.71,West,270,12.7,12.7,53,0.00,-SN,,0.04,0.0,WeatherDisplay:10.37,2013-02-20 03:35:00,
2013-02-19 22:40:00,27.0,12.1,29.71,WSW,248,20.7,20.7,53,0.00,-SN,,0.04,0.0,WeatherDisplay:10.37,2013-02-20 03:40:00,
2013-02-19 22:45:00,27.0,12.1,29.71,WSW,248,18.4,18.4,53,0.00,-SN,,0.04,0.0,WeatherDisplay:10.37,2013-02-20 03:45:00,
2013-02-19 22:50:00,27.0,12.1,29.71,West,270,20.8,20.8,53,0.00,-SN,,0.04,0.0,WeatherDisplay:10.37,2013-02-20 03:50:00,
2013-02-19 22:55:00,27.0,12.1,29.71,WSW,248,16.1,16.1,53,0.00,-SN,,0.04,0.0,WeatherDisplay:10.37,2013-02-20 03:55:00,
2013-02-19 23:00:00,27.0,12.1,29.71,WSW,248,20.7,20.7,53,0.00,-SN,,0.04,0.0,WeatherDisplay:10.37,2013-02-20 04:00:00,
2013-02-19 23:05:00,27.0,12.1,29.71,West,270,25.6,25.6,53,0.00,BKN,,0.04,0.0,WeatherDisplay:10.37,2013-02-20 04:05:00,
2013-02-19 23:10:00,27.0,12.1,29.71,West,270,23.5,23.5,53,0.00,BKN,,0.04,0.0,WeatherDisplay:10.37,2013-02-20 04:10:00,
2013-02-19 23:15:00,27.0,12.1,29.71,West,270,20.4,20.4,53,0.00,BKN,,0.04,0.0,WeatherDisplay:10.37,2013-02-20 04:15:00,
2013-02-19 23:20:00,27.0,12.1,29.71,West,270,15.2,15.2,53,0.00,BKN,,0.04,0.0,WeatherDisplay:10.37,2013-02-20 04:20:00,
2013-02-19 23:25:00,27.0,12.1,29.71,WNW,292,25.3,25.3,53,0.00,BKN,,0.04,0.0,WeatherDisplay:10.37,2013-02-20 04:25:00,
2013-02-19 23:30:00,27.0,12.1,29.71,WSW,248,24.2,24.2,53,0.00,BKN,,0.04,0.0,WeatherDisplay:10.37,2013-02-20 04:30:00,
2013-02-19 23:35:00,27.0,12.1,29.71,WSW,248,15.0,15.0,53,0.00,BKN,,0.04,0.0,WeatherDisplay:10.37,2013-02-20 04:35:00,
2013-02-19 23:40:00,27.0,12.1,29.71,WNW,292,16.1,16.1,53,0.00,BKN,,0.04,0.0,WeatherDisplay:10.37,2013-02-20 04:40:00,
2013-02-19 23:45:00,26.8,11.9,29.71,West,270,15.0,15.0,53,0.00,BKN,,0.04,0.0,WeatherDisplay:10.37,2013-02-20 04:45:00,
2013-02-19 23:50:00,26.8,11.9,29.71,West,270,19.7,19.7,53,0.00,BKN,,0.04,0.0,WeatherDisplay:10.37,2013-02-20 04:50:00,
2013-02-19 23:55:00,26.8,11.9,29.71,West,270,16.1,16.1,53,0.00,BKN,,0.04,0.0,WeatherDisplay:10.37,2013-02-20 04:55:00,